Time;durP1;ratioP1;P1;durP2;ratioP2;P2;SDS_P1;SDS_P2;PMS_P1;PMS_P2;Temp;Humidity;BMP_temperature;BMP_pressure;BME280_temperature;BME280_humidity;BME280_pressure;Samples;Min_cycle;Max_cycle;Signal;HPM_P1;HPM_P2
2022/04/16 00:01:53;;;;;;;26.10;14.80;;;;;;;;;;5108646;28;20050;-63
2022/04/16 00:04:19;;;;;;;24.38;15.88;;;;;;;;;;5113089;28;20055;-63
2022/04/16 00:06:45;;;;;;;26.65;16.17;;;;;;;;;;5112356;28;20050;-63
2022/04/16 00:09:11;;;;;;;23.15;14.73;;;;;;;;;;5092115;28;20519;-63
2022/04/16 00:11:38;;;;;;;26.23;15.30;;;;;;;;;;5111848;28;20031;-63
2022/04/16 00:14:04;;;;;;;21.02;14.55;;;;;;;;;;5113144;28;20040;-63
2022/04/16 00:16:31;;;;;;;26.55;14.75;;;;;;;;;;5113023;28;20069;-63
2022/04/16 00:18:57;;;;;;;24.30;15.82;;;;;;;;;;5103028;28;20043;-63
2022/04/16 00:21:23;;;;;;;26.23;15.63;;;;;;;;;;5112438;28;20044;-63
2022/04/16 00:23:49;;;;;;;25.50;16.17;;;;;;;;;;5111575;28;20040;-63
2022/04/16 00:26:15;;;;;;;25.52;15.73;;;;;;;;;;5111903;28;20035;-63
2022/04/16 00:28:41;;;;;;;29.70;16.08;;;;;;;;;;5110586;28;20042;-63
2022/04/16 00:31:07;;;;;;;30.33;17.85;;;;;;;;;;5123054;22;20039;-62
2022/04/16 00:33:34;;;;;;;30.00;17.05;;;;;;;;;;5103216;28;20048;-63
2022/04/16 00:36:01;;;;;;;31.90;17.08;;;;;;;;;;5093676;28;20040;-63
2022/04/16 00:38:27;;;;;;;31.15;17.30;;;;;;;;;;5083967;28;20132;-63
2022/04/16 00:40:53;;;;;;;29.88;16.30;;;;;;;;;;5101308;28;20547;-63
2022/04/16 00:43:27;;;;;;;30.15;16.92;;;;;;;;;;5072786;28;20050;-63
2022/04/16 00:45:53;;;;;;;28.45;18.08;;;;;;;;;;5072154;28;20059;-63
2022/04/16 00:48:20;;;;;;;29.80;16.27;;;;;;;;;;5078812;28;20052;-63
2022/04/16 00:50:46;;;;;;;30.05;16.75;;;;;;;;;;5074350;28;20426;-63
2022/04/16 00:53:12;;;;;;;28.02;16.50;;;;;;;;;;5070803;28;20089;-63
2022/04/16 00:55:38;;;;;;;30.85;16.88;;;;;;;;;;5091228;28;20127;-63
2022/04/16 00:58:04;;;;;;;27.23;17.45;;;;;;;;;;5078317;28;20059;-63
2022/04/16 01:00:30;;;;;;;29.48;16.88;;;;;;;;;;5080203;28;20065;-63
2022/04/16 01:02:57;;;;;;;27.63;17.55;;;;;;;;;;5102312;28;20485;-63
2022/04/16 01:05:23;;;;;;;30.80;18.05;;;;;;;;;;5094848;28;20044;-63
2022/04/16 01:07:53;;;;;;;30.92;16.48;;;;;;;;;;5069803;28;20039;-63
2022/04/16 01:10:26;;;;;;;29.00;17.17;;;;;;;;;;5056974;28;20428;-63
2022/04/16 01:12:52;;;;;;;29.85;17.70;;;;;;;;;;5091194;28;20131;-63
2022/04/16 01:15:20;;;;;;;32.63;18.25;;;;;;;;;;5091883;28;20386;-63
2022/04/16 01:17:47;;;;;;;29.75;18.40;;;;;;;;;;5088197;28;20127;-62
2022/04/16 01:20:13;;;;;;;30.38;18.77;;;;;;;;;;5087049;28;20043;-63
2022/04/16 01:22:40;;;;;;;29.58;18.25;;;;;;;;;;5043230;28;20048;-63
2022/04/16 01:25:07;;;;;;;29.98;18.30;;;;;;;;;;5072526;28;20120;-63
2022/04/16 01:27:35;;;;;;;28.60;17.90;;;;;;;;;;5056327;28;20131;-63
2022/04/16 01:30:02;;;;;;;30.67;18.23;;;;;;;;;;5078190;28;20040;-63
2022/04/16 01:32:28;;;;;;;30.67;19.02;;;;;;;;;;5080431;28;20036;-64
2022/04/16 01:34:54;;;;;;;30.35;17.60;;;;;;;;;;5084825;28;20043;-63
2022/04/16 01:37:23;;;;;;;31.92;18.77;;;;;;;;;;5092875;28;20502;-62
2022/04/16 01:39:49;;;;;;;33.05;18.35;;;;;;;;;;5086466;28;20051;-63
2022/04/16 01:42:15;;;;;;;30.88;18.48;;;;;;;;;;5074194;28;20032;-63
2022/04/16 01:44:43;;;;;;;33.88;19.75;;;;;;;;;;5090675;28;20075;-64
2022/04/16 01:47:10;;;;;;;29.38;18.90;;;;;;;;;;5089208;28;20561;-64
2022/04/16 01:49:36;;;;;;;30.75;18.63;;;;;;;;;;5080280;28;20036;-64
2022/04/16 01:52:03;;;;;;;34.40;20.08;;;;;;;;;;5065730;28;20047;-63
2022/04/16 01:54:29;;;;;;;31.35;19.13;;;;;;;;;;5090041;28;20028;-64
2022/04/16 01:56:56;;;;;;;31.98;18.42;;;;;;;;;;5075808;28;20406;-63
2022/04/16 01:59:25;;;;;;;32.70;19.30;;;;;;;;;;5077093;28;20426;-64
2022/04/16 02:01:51;;;;;;;35.20;19.92;;;;;;;;;;5077043;28;20036;-64
2022/04/16 02:04:17;;;;;;;35.15;19.27;;;;;;;;;;5076105;28;20174;-64
2022/04/16 02:06:43;;;;;;;30.35;18.52;;;;;;;;;;5059709;28;20119;-63
2022/04/16 02:09:09;;;;;;;36.88;20.38;;;;;;;;;;5079398;28;20036;-63
2022/04/16 02:11:35;;;;;;;33.05;20.02;;;;;;;;;;5090860;28;20032;-63
2022/04/16 02:14:02;;;;;;;30.33;18.95;;;;;;;;;;5080192;28;20031;-63
2022/04/16 02:16:28;;;;;;;32.47;18.95;;;;;;;;;;5078910;28;20040;-63
2022/04/16 02:18:54;;;;;;;34.47;20.45;;;;;;;;;;5090860;28;20028;-63
2022/04/16 02:21:22;;;;;;;37.28;21.00;;;;;;;;;;5085546;28;20115;-63
2022/04/16 02:23:51;;;;;;;33.95;20.15;;;;;;;;;;5086764;28;20043;-63
2022/04/16 02:26:20;;;;;;;33.85;20.27;;;;;;;;;;5089155;28;20482;-63
2022/04/16 02:28:46;;;;;;;34.75;19.73;;;;;;;;;;5084809;28;20075;-63
2022/04/16 02:31:12;;;;;;;34.67;20.08;;;;;;;;;;5084728;28;20064;-63
2022/04/16 02:33:38;;;;;;;37.35;20.23;;;;;;;;;;5092371;28;20067;-63
2022/04/16 02:36:05;;;;;;;41.35;20.40;;;;;;;;;;5090220;28;20032;-63
2022/04/16 02:38:31;;;;;;;36.72;21.70;;;;;;;;;;5074677;28;20047;-63
2022/04/16 02:40:57;;;;;;;38.15;20.98;;;;;;;;;;5074320;28;20114;-62
2022/04/16 02:43:23;;;;;;;39.63;22.40;;;;;;;;;;5076575;28;20067;-63
2022/04/16 02:48:34;;;;;;;37.63;21.13;;;;;;;;;;5087550;28;20414;-62
2022/04/16 02:51:00;;;;;;;39.97;22.85;;;;;;;;;;5084869;28;20039;-63
2022/04/16 02:53:26;;;;;;;37.00;22.13;;;;;;;;;;5075532;28;20469;-63
2022/04/16 02:55:55;;;;;;;43.80;23.85;;;;;;;;;;5074920;28;20414;-63
2022/04/16 02:58:21;;;;;;;39.40;22.48;;;;;;;;;;5083488;28;20128;-63
2022/04/16 03:00:47;;;;;;;40.20;23.15;;;;;;;;;;5082780;28;20072;-63
2022/04/16 03:03:13;;;;;;;40.88;23.27;;;;;;;;;;5085827;28;20071;-63
2022/04/16 03:05:39;;;;;;;42.08;22.50;;;;;;;;;;5092806;28;20505;-63
2022/04/16 03:08:07;;;;;;;43.92;22.05;;;;;;;;;;5088938;28;20123;-63
2022/04/16 03:10:33;;;;;;;40.42;22.45;;;;;;;;;;5085105;28;20090;-63
2022/04/16 03:12:59;;;;;;;40.00;23.08;;;;;;;;;;5066826;28;20035;-63
2022/04/16 03:18:10;;;;;;;41.50;22.42;;;;;;;;;;5081458;28;20040;-63
2022/04/16 03:20:37;;;;;;;42.88;22.88;;;;;;;;;;5081469;28;20043;-63
2022/04/16 03:23:03;;;;;;;41.13;22.45;;;;;;;;;;5089952;28;20086;-63
2022/04/16 03:25:29;;;;;;;44.08;24.00;;;;;;;;;;5069276;28;20068;-63
2022/04/16 03:27:56;;;;;;;41.55;22.90;;;;;;;;;;5089615;28;20447;-63
2022/04/16 03:30:23;;;;;;;40.92;23.85;;;;;;;;;;5088356;28;20537;-63
2022/04/16 03:32:50;;;;;;;42.13;23.48;;;;;;;;;;5081547;28;20085;-63
2022/04/16 03:35:17;;;;;;;42.25;23.60;;;;;;;;;;5056371;28;20093;-63
2022/04/16 03:37:43;;;;;;;41.90;23.77;;;;;;;;;;5080415;28;20080;-63
2022/04/16 03:40:10;;;;;;;41.17;23.80;;;;;;;;;;5075895;28;20149;-63
2022/04/16 03:42:44;;;;;;;42.78;23.13;;;;;;;;;;5093580;28;20081;-63
2022/04/16 03:45:10;;;;;;;40.50;22.67;;;;;;;;;;5083307;28;20123;-63
2022/04/16 03:47:36;;;;;;;37.72;21.42;;;;;;;;;;5086576;28;20045;-63
2022/04/16 03:50:02;;;;;;;36.35;21.88;;;;;;;;;;5072092;28;20121;-63
2022/04/16 03:52:28;;;;;;;35.30;20.98;;;;;;;;;;5081570;28;20032;-63
2022/04/16 04:00:24;;;;;;;37.25;21.27;;;;;;;;;;5080675;28;20082;-63
2022/04/16 04:02:50;;;;;;;34.88;20.80;;;;;;;;;;5085568;28;20065;-63
2022/04/16 04:05:16;;;;;;;31.95;19.40;;;;;;;;;;5084434;28;20036;-63
2022/04/16 04:07:42;;;;;;;36.75;20.77;;;;;;;;;;5087566;28;20043;-63
2022/04/16 04:10:08;;;;;;;34.70;20.77;;;;;;;;;;5076275;28;20051;-63
2022/04/16 04:12:35;;;;;;;32.83;19.35;;;;;;;;;;5072280;28;20043;-63
2022/04/16 04:15:01;;;;;;;35.50;19.90;;;;;;;;;;5071881;28;20048;-63
2022/04/16 04:17:27;;;;;;;35.45;21.17;;;;;;;;;;5083584;28;20048;-63
2022/04/16 04:19:53;;;;;;;35.10;20.33;;;;;;;;;;5060206;28;20103;-63
2022/04/16 04:22:20;;;;;;;31.65;20.02;;;;;;;;;;5081571;28;20040;-63
2022/04/16 04:24:46;;;;;;;35.95;21.13;;;;;;;;;;5072103;28;20037;-63
2022/04/16 04:27:12;;;;;;;36.75;20.42;;;;;;;;;;5064071;28;20054;-63
2022/04/16 04:29:38;;;;;;;33.15;19.35;;;;;;;;;;5082859;28;20853;-65
2022/04/16 04:32:05;;;;;;;34.33;20.35;;;;;;;;;;5092406;28;20466;-64
2022/04/16 04:34:31;;;;;;;31.35;20.02;;;;;;;;;;5054559;28;20048;-64
2022/04/16 04:36:57;;;;;;;31.95;18.48;;;;;;;;;;5080069;28;20064;-64
2022/04/16 04:39:23;;;;;;;30.58;18.65;;;;;;;;;;5064618;28;20110;-64
2022/04/16 04:41:49;;;;;;;33.25;18.33;;;;;;;;;;5077286;28;20045;-64
2022/04/16 04:44:16;;;;;;;29.13;18.20;;;;;;;;;;5053540;28;20106;-64
2022/04/16 04:46:42;;;;;;;33.75;18.15;;;;;;;;;;5056993;28;20063;-63
2022/04/16 04:49:09;;;;;;;30.55;18.27;;;;;;;;;;5071447;28;20414;-64
2022/04/16 04:51:35;;;;;;;30.73;16.77;;;;;;;;;;5084906;28;20066;-64
2022/04/16 04:54:01;;;;;;;30.50;18.23;;;;;;;;;;5084092;28;20033;-64
2022/04/16 04:56:28;;;;;;;33.10;18.45;;;;;;;;;;5085753;28;20063;-64
2022/04/16 04:58:54;;;;;;;31.83;18.55;;;;;;;;;;5072777;28;20052;-64
2022/04/16 05:01:20;;;;;;;30.67;18.48;;;;;;;;;;5072412;28;20036;-64
2022/04/16 05:03:46;;;;;;;29.33;17.52;;;;;;;;;;5076399;28;20402;-64
2022/04/16 05:06:12;;;;;;;30.65;18.15;;;;;;;;;;5069118;28;20054;-64
2022/04/16 05:08:38;;;;;;;31.15;17.67;;;;;;;;;;5071407;28;20040;-64
2022/04/16 05:11:04;;;;;;;29.67;17.88;;;;;;;;;;5080020;28;20044;-63
2022/04/16 05:13:30;;;;;;;29.58;17.25;;;;;;;;;;5053942;28;20033;-64
2022/04/16 05:15:56;;;;;;;30.98;17.00;;;;;;;;;;5088587;28;20032;-64
2022/04/16 05:18:22;;;;;;;29.88;17.17;;;;;;;;;;5085427;28;20044;-64
2022/04/16 05:20:48;;;;;;;30.75;17.10;;;;;;;;;;5077517;28;20494;-64
2022/04/16 05:23:14;;;;;;;27.90;16.75;;;;;;;;;;5091865;28;20114;-64
2022/04/16 05:25:40;;;;;;;25.00;15.60;;;;;;;;;;5085597;28;20451;-63
2022/04/16 05:28:06;;;;;;;25.92;15.50;;;;;;;;;;5077621;28;20119;-64
2022/04/16 05:30:38;;;;;;;25.55;15.40;;;;;;;;;;5090599;28;20090;-64
2022/04/16 05:33:16;;;;;;;26.80;16.10;;;;;;;;;;5072731;28;20036;-64
2022/04/16 05:35:45;;;;;;;27.05;15.85;;;;;;;;;;5074069;28;20048;-63
2022/04/16 05:38:11;;;;;;;25.30;15.43;;;;;;;;;;5074429;28;20043;-63
2022/04/16 05:40:37;;;;;;;28.60;15.90;;;;;;;;;;5090966;28;20044;-63
2022/04/16 05:43:03;;;;;;;25.85;15.98;;;;;;;;;;5073118;28;20414;-64
2022/04/16 05:45:29;;;;;;;29.38;15.50;;;;;;;;;;5086607;28;20040;-64
2022/04/16 05:47:56;;;;;;;29.33;15.98;;;;;;;;;;5085301;28;20032;-63
2022/04/16 05:50:22;;;;;;;26.10;15.43;;;;;;;;;;5076733;28;20087;-64
2022/04/16 05:52:49;;;;;;;28.30;16.92;;;;;;;;;;5079025;28;20059;-63
2022/04/16 05:55:14;;;;;;;27.83;15.75;;;;;;;;;;5081606;28;20044;-64
2022/04/16 05:57:41;;;;;;;26.20;15.30;;;;;;;;;;5084174;28;20035;-63
2022/04/16 06:00:07;;;;;;;29.80;16.70;;;;;;;;;;5095391;28;20040;-63
2022/04/16 06:02:33;;;;;;;27.02;16.52;;;;;;;;;;5063406;28;20532;-62
2022/04/16 06:04:59;;;;;;;28.55;16.30;;;;;;;;;;5071528;28;20079;-62
2022/04/16 06:07:25;;;;;;;28.38;16.42;;;;;;;;;;5081008;28;20036;-62
2022/04/16 06:09:51;;;;;;;29.88;16.23;;;;;;;;;;5064519;28;20087;-63
2022/04/16 06:12:17;;;;;;;32.40;16.88;;;;;;;;;;5088492;28;20449;-62
2022/04/16 06:14:43;;;;;;;31.27;16.10;;;;;;;;;;5077834;28;20028;-62
2022/04/16 06:17:09;;;;;;;30.70;15.70;;;;;;;;;;5085287;28;20028;-62
2022/04/16 06:19:35;;;;;;;25.83;14.98;;;;;;;;;;5084522;28;20189;-62
2022/04/16 06:22:01;;;;;;;26.70;15.10;;;;;;;;;;5093242;28;20040;-62
2022/04/16 06:24:27;;;;;;;29.10;14.98;;;;;;;;;;5084017;28;20036;-62
2022/04/16 06:26:53;;;;;;;30.60;13.85;;;;;;;;;;5066760;28;20048;-62
2022/04/16 06:29:19;;;;;;;21.13;13.38;;;;;;;;;;5089754;28;20489;-62
2022/04/16 06:31:45;;;;;;;26.85;14.93;;;;;;;;;;5107023;22;20040;-62
2022/04/16 06:34:11;;;;;;;23.75;14.20;;;;;;;;;;5099619;28;20039;-62
2022/04/16 06:36:38;;;;;;;23.25;14.13;;;;;;;;;;5068415;28;20035;-63
2022/04/16 06:39:04;;;;;;;24.15;13.55;;;;;;;;;;5094312;28;20119;-62
2022/04/16 06:41:30;;;;;;;22.38;12.10;;;;;;;;;;5094436;28;20071;-62
2022/04/16 06:43:56;;;;;;;24.98;14.20;;;;;;;;;;5093955;28;20036;-63
2022/04/16 06:46:22;;;;;;;24.23;14.32;;;;;;;;;;5086305;28;20522;-63
2022/04/16 06:48:48;;;;;;;22.25;13.25;;;;;;;;;;5092488;28;20051;-63
2022/04/16 06:51:14;;;;;;;27.65;13.80;;;;;;;;;;5090843;28;20078;-63
2022/04/16 06:53:39;;;;;;;24.75;14.30;;;;;;;;;;5087914;28;20028;-62
2022/04/16 06:56:05;;;;;;;24.58;13.50;;;;;;;;;;5081826;28;20032;-62
2022/04/16 06:58:31;;;;;;;19.90;12.68;;;;;;;;;;5085089;28;20040;-62
2022/04/16 07:00:57;;;;;;;23.73;13.00;;;;;;;;;;5090707;28;20040;-63
2022/04/16 07:03:23;;;;;;;22.02;13.27;;;;;;;;;;5078369;28;20115;-62
2022/04/16 07:05:49;;;;;;;20.95;12.93;;;;;;;;;;5083769;28;20520;-63
2022/04/16 07:08:16;;;;;;;21.40;12.70;;;;;;;;;;5090805;28;20065;-63
2022/04/16 07:10:41;;;;;;;18.08;10.35;;;;;;;;;;5075523;28;20048;-63
2022/04/16 07:13:07;;;;;;;20.83;11.68;;;;;;;;;;5086171;28;20035;-63
2022/04/16 07:15:33;;;;;;;18.33;11.23;;;;;;;;;;5094414;28;20501;-63
2022/04/16 07:18:00;;;;;;;17.38;10.57;;;;;;;;;;5088158;28;20651;-63
2022/04/16 07:20:26;;;;;;;18.17;11.38;;;;;;;;;;5088170;28;20581;-63
2022/04/16 07:22:52;;;;;;;20.35;10.80;;;;;;;;;;5091007;28;20043;-63
2022/04/16 07:25:20;;;;;;;17.17;9.68;;;;;;;;;;5092574;28;20066;-62
2022/04/16 07:27:46;;;;;;;16.30;10.38;;;;;;;;;;5082477;28;20044;-63
2022/04/16 07:30:12;;;;;;;15.20;8.85;;;;;;;;;;5089143;28;20112;-64
2022/04/16 07:32:38;;;;;;;16.58;9.90;;;;;;;;;;5084909;28;20044;-63
2022/04/16 07:35:05;;;;;;;15.75;9.60;;;;;;;;;;5094656;28;20440;-63
2022/04/16 07:37:30;;;;;;;16.65;9.48;;;;;;;;;;5085972;28;20037;-63
2022/04/16 07:39:56;;;;;;;13.43;9.07;;;;;;;;;;5084471;28;20514;-63
2022/04/16 07:42:26;;;;;;;13.77;8.13;;;;;;;;;;5096521;28;20421;-63
2022/04/16 07:44:52;;;;;;;13.43;8.00;;;;;;;;;;5094357;28;20043;-63
2022/04/16 07:47:18;;;;;;;13.23;7.43;;;;;;;;;;5091667;28;20040;-63
2022/04/16 07:49:44;;;;;;;12.32;7.45;;;;;;;;;;5089305;28;20124;-63
2022/04/16 07:52:10;;;;;;;12.15;6.90;;;;;;;;;;5092457;28;20036;-63
2022/04/16 07:54:37;;;;;;;12.77;6.35;;;;;;;;;;5094569;28;20028;-63
2022/04/16 07:57:04;;;;;;;10.88;6.75;;;;;;;;;;5080828;28;20477;-64
2022/04/16 07:59:30;;;;;;;10.48;6.50;;;;;;;;;;5083889;28;20048;-63
2022/04/16 08:01:56;;;;;;;10.02;6.03;;;;;;;;;;5090647;28;20089;-63
2022/04/16 08:04:22;;;;;;;11.30;6.72;;;;;;;;;;5092672;28;20032;-63
2022/04/16 08:06:48;;;;;;;9.45;6.45;;;;;;;;;;5092900;28;20169;-64
2022/04/16 08:09:14;;;;;;;9.55;6.10;;;;;;;;;;5090617;28;20040;-63
2022/04/16 08:11:40;;;;;;;9.35;5.80;;;;;;;;;;5086526;28;20027;-63
2022/04/16 08:14:06;;;;;;;9.63;5.60;;;;;;;;;;5092455;28;20036;-63
2022/04/16 08:16:33;;;;;;;11.68;6.13;;;;;;;;;;5092234;28;20039;-63
2022/04/16 08:18:59;;;;;;;7.40;4.80;;;;;;;;;;5091237;28;20085;-63
2022/04/16 08:21:29;;;;;;;9.05;4.63;;;;;;;;;;5091367;28;20036;-63
2022/04/16 08:24:13;;;;;;;7.80;4.65;;;;;;;;;;5092554;28;20028;-63
2022/04/16 08:26:40;;;;;;;6.05;3.90;;;;;;;;;;5092625;28;20040;-63
2022/04/16 08:29:07;;;;;;;7.97;4.35;;;;;;;;;;5090065;28;20074;-63
2022/04/16 08:31:33;;;;;;;8.15;4.13;;;;;;;;;;5091096;28;20043;-63
2022/04/16 08:34:00;;;;;;;6.72;4.15;;;;;;;;;;5092227;28;20107;-63
2022/04/16 08:36:26;;;;;;;7.03;4.07;;;;;;;;;;5092693;28;20407;-63
2022/04/16 08:38:52;;;;;;;6.20;4.00;;;;;;;;;;5089727;28;20042;-63
2022/04/16 08:41:18;;;;;;;5.95;3.97;;;;;;;;;;5086297;28;20116;-63
2022/04/16 08:43:44;;;;;;;5.82;3.42;;;;;;;;;;5091665;28;20615;-63
2022/04/16 08:46:11;;;;;;;5.55;3.45;;;;;;;;;;5074498;28;20082;-64
2022/04/16 08:48:37;;;;;;;10.02;5.13;;;;;;;;;;5090467;28;20386;-63
2022/04/16 08:51:03;;;;;;;6.38;3.88;;;;;;;;;;5067979;28;20040;-63
2022/04/16 08:53:29;;;;;;;4.95;3.10;;;;;;;;;;5091605;28;20034;-63
2022/04/16 08:55:55;;;;;;;4.25;2.90;;;;;;;;;;5091603;28;20117;-64
2022/04/16 08:58:21;;;;;;;5.45;3.22;;;;;;;;;;5090446;28;20040;-63
2022/04/16 09:00:47;;;;;;;4.45;2.65;;;;;;;;;;5091666;28;20036;-63
2022/04/16 09:03:13;;;;;;;3.00;2.35;;;;;;;;;;5091584;28;20044;-63
2022/04/16 09:05:39;;;;;;;7.97;2.88;;;;;;;;;;5092172;28;20036;-63
2022/04/16 09:08:05;;;;;;;4.88;2.47;;;;;;;;;;5090079;28;20197;-63
2022/04/16 09:10:33;;;;;;;3.88;2.50;;;;;;;;;;5086569;28;20036;-63
2022/04/16 09:13:00;;;;;;;3.60;2.30;;;;;;;;;;5090753;28;20028;-63
2022/04/16 09:15:27;;;;;;;4.22;2.58;;;;;;;;;;5091998;28;20547;-64
2022/04/16 09:18:00;;;;;;;5.10;2.50;;;;;;;;;;5090344;28;20059;-64
2022/04/16 09:20:30;;;;;;;4.22;2.25;;;;;;;;;;5089773;28;20537;-63
2022/04/16 09:22:56;;;;;;;5.03;2.40;;;;;;;;;;5091405;28;20086;-63
2022/04/16 09:25:22;;;;;;;5.03;2.30;;;;;;;;;;5091560;28;20047;-64
2022/04/16 09:27:54;;;;;;;6.38;2.70;;;;;;;;;;5090119;28;20068;-64
2022/04/16 09:30:23;;;;;;;5.15;2.50;;;;;;;;;;5087768;28;20047;-64
2022/04/16 09:32:49;;;;;;;6.57;2.42;;;;;;;;;;5089402;28;20036;-63
2022/04/16 09:35:42;;;;;;;3.72;2.17;;;;;;;;;;5091659;28;20123;-64
2022/04/16 09:38:08;;;;;;;3.95;2.50;;;;;;;;;;5086423;28;20513;-63
2022/04/16 09:40:35;;;;;;;3.00;1.55;;;;;;;;;;5088578;28;20587;-64
2022/04/16 09:43:03;;;;;;;2.50;1.02;;;;;;;;;;5089217;28;20040;-64
2022/04/16 09:45:29;;;;;;;2.22;1.38;;;;;;;;;;5082965;28;20047;-63
2022/04/16 09:47:55;;;;;;;1.38;1.10;;;;;;;;;;5090884;28;20490;-63
2022/04/16 09:50:22;;;;;;;3.97;1.58;;;;;;;;;;5089973;28;20050;-64
2022/04/16 09:52:52;;;;;;;1.48;1.13;;;;;;;;;;5090023;28;20040;-64
2022/04/16 09:55:22;;;;;;;3.63;1.30;;;;;;;;;;5091167;28;20047;-64
2022/04/16 09:57:58;;;;;;;3.90;1.23;;;;;;;;;;5091005;28;20064;-64
2022/04/16 10:00:24;;;;;;;2.60;1.20;;;;;;;;;;5082919;28;20085;-64
2022/04/16 10:02:51;;;;;;;1.85;1.40;;;;;;;;;;5083495;28;20032;-64
2022/04/16 10:05:18;;;;;;;5.32;1.60;;;;;;;;;;5091396;28;20112;-64
2022/04/16 10:07:44;;;;;;;4.07;1.13;;;;;;;;;;5091346;28;20396;-64
2022/04/16 10:10:25;;;;;;;1.92;1.17;;;;;;;;;;5090195;28;20414;-64
2022/04/16 10:12:59;;;;;;;1.27;1.10;;;;;;;;;;5089657;28;20115;-64
2022/04/16 10:15:28;;;;;;;2.10;1.48;;;;;;;;;;5089255;28;20246;-64
2022/04/16 10:17:54;;;;;;;2.08;1.30;;;;;;;;;;5090325;28;20495;-64
2022/04/16 10:20:21;;;;;;;3.30;1.08;;;;;;;;;;5089581;28;20566;-64
2022/04/16 10:23:03;;;;;;;1.73;1.25;;;;;;;;;;5082393;28;20039;-64
2022/04/16 10:25:32;;;;;;;2.78;1.00;;;;;;;;;;5083142;28;20052;-64
2022/04/16 10:28:09;;;;;;;1.83;1.23;;;;;;;;;;5082027;28;20448;-64
2022/04/16 10:30:42;;;;;;;3.45;1.50;;;;;;;;;;5075193;28;20040;-64
2022/04/16 10:33:18;;;;;;;1.55;1.10;;;;;;;;;;5090861;28;20035;-64
2022/04/16 10:35:56;;;;;;;2.25;1.02;;;;;;;;;;5090744;28;20032;-64
2022/04/16 10:38:23;;;;;;;2.15;1.23;;;;;;;;;;5089074;28;20051;-65
2022/04/16 10:40:59;;;;;;;1.42;1.17;;;;;;;;;;5096501;28;20092;-64
2022/04/16 10:43:29;;;;;;;1.55;0.90;;;;;;;;;;5104320;28;20075;-64
2022/04/16 10:45:56;;;;;;;1.67;1.15;;;;;;;;;;5115162;28;20040;-64
2022/04/16 10:48:22;;;;;;;1.42;0.85;;;;;;;;;;5087921;28;20044;-64
2022/04/16 10:50:49;;;;;;;1.80;1.02;;;;;;;;;;5093264;28;20096;-64
2022/04/16 10:53:15;;;;;;;2.35;1.27;;;;;;;;;;5082260;28;20036;-64
2022/04/16 10:55:48;;;;;;;2.60;1.40;;;;;;;;;;5090304;28;20122;-64
2022/04/16 10:58:16;;;;;;;2.08;0.90;;;;;;;;;;5081663;28;20039;-64
2022/04/16 11:00:46;;;;;;;2.60;0.95;;;;;;;;;;5081258;28;20505;-64
2022/04/16 11:03:13;;;;;;;1.77;0.80;;;;;;;;;;5094661;28;20044;-64
2022/04/16 11:05:41;;;;;;;2.30;1.20;;;;;;;;;;5081529;28;20163;-64
2022/04/16 11:08:08;;;;;;;3.80;1.10;;;;;;;;;;5072182;28;20457;-64
2022/04/16 11:10:34;;;;;;;1.42;1.17;;;;;;;;;;5090761;28;20140;-64
2022/04/16 11:13:01;;;;;;;1.70;1.20;;;;;;;;;;5084801;28;20499;-64
2022/04/16 11:15:28;;;;;;;3.10;1.00;;;;;;;;;;5084225;28;20058;-64
2022/04/16 11:17:54;;;;;;;2.92;1.00;;;;;;;;;;5089286;28;20039;-64
2022/04/16 11:20:21;;;;;;;1.58;1.08;;;;;;;;;;5088493;28;20065;-64
2022/04/16 11:22:47;;;;;;;2.40;0.93;;;;;;;;;;5096162;28;20039;-64
2022/04/16 11:25:13;;;;;;;1.50;0.90;;;;;;;;;;5092083;28;20039;-63
2022/04/16 11:36:13;;;;;;;2.53;0.85;;;;;;;;;;5087857;28;20070;-64
2022/04/16 11:38:40;;;;;;;1.95;0.80;;;;;;;;;;5085908;28;20418;-64
2022/04/16 11:41:08;;;;;;;1.58;1.00;;;;;;;;;;5091009;28;20047;-64
2022/04/16 11:43:38;;;;;;;1.67;1.10;;;;;;;;;;5061300;28;20048;-64
2022/04/16 11:46:11;;;;;;;1.67;0.98;;;;;;;;;;5089397;28;20097;-64
2022/04/16 11:48:37;;;;;;;1.70;0.90;;;;;;;;;;5091742;28;20532;-64
2022/04/16 11:51:03;;;;;;;2.55;0.90;;;;;;;;;;5080579;28;20035;-64
2022/04/16 11:53:29;;;;;;;1.77;0.93;;;;;;;;;;5092698;28;20039;-64
2022/04/16 11:55:56;;;;;;;2.63;1.00;;;;;;;;;;5092416;28;20035;-64
2022/04/16 11:58:29;;;;;;;1.60;1.00;;;;;;;;;;5083790;28;20072;-64
2022/04/16 12:00:55;;;;;;;2.65;0.90;;;;;;;;;;5086563;28;20440;-63
2022/04/16 12:03:22;;;;;;;1.00;0.82;;;;;;;;;;5100531;28;20051;-64
2022/04/16 12:05:49;;;;;;;2.08;0.90;;;;;;;;;;5092525;28;20040;-64
2022/04/16 12:08:16;;;;;;;1.25;1.08;;;;;;;;;;5083536;28;20498;-64
2022/04/16 12:10:45;;;;;;;1.58;1.13;;;;;;;;;;5090248;28;20050;-64
2022/04/16 12:13:12;;;;;;;2.28;0.90;;;;;;;;;;5089388;28;20059;-64
2022/04/16 12:15:45;;;;;;;1.85;1.20;;;;;;;;;;5089010;28;20417;-64
2022/04/16 12:18:12;;;;;;;2.90;1.10;;;;;;;;;;5069800;28;20036;-64
2022/04/16 12:20:46;;;;;;;2.17;1.02;;;;;;;;;;5089280;28;20487;-64
2022/04/16 12:23:19;;;;;;;2.10;1.10;;;;;;;;;;5061747;28;20549;-64
2022/04/16 12:25:45;;;;;;;4.20;1.33;;;;;;;;;;5091843;28;20040;-64
2022/04/16 12:28:12;;;;;;;2.25;1.00;;;;;;;;;;5089418;28;20899;-64
2022/04/16 12:30:38;;;;;;;1.73;0.90;;;;;;;;;;5105300;22;20144;-63
2022/04/16 12:33:05;;;;;;;6.00;1.30;;;;;;;;;;5087983;28;20053;-63
2022/04/16 12:35:32;;;;;;;1.45;1.20;;;;;;;;;;5088982;28;20658;-63
2022/04/16 12:37:59;;;;;;;2.10;1.20;;;;;;;;;;5087260;28;20060;-62
2022/04/16 12:40:26;;;;;;;2.65;1.25;;;;;;;;;;5090068;28;20573;-62
2022/04/16 12:42:53;;;;;;;1.80;1.10;;;;;;;;;;5070793;28;20371;-62
2022/04/16 12:45:20;;;;;;;2.50;1.20;;;;;;;;;;5070314;28;20494;-62
2022/04/16 12:47:46;;;;;;;2.20;1.13;;;;;;;;;;5051457;28;20044;-62
2022/04/16 12:50:13;;;;;;;1.77;1.15;;;;;;;;;;5070863;28;20044;-62
2022/04/16 12:52:39;;;;;;;1.13;0.90;;;;;;;;;;5070253;28;20033;-62
2022/04/16 12:55:06;;;;;;;3.38;1.40;;;;;;;;;;5067312;28;20041;-63
2022/04/16 12:57:32;;;;;;;3.50;1.33;;;;;;;;;;5070914;28;20032;-63
2022/04/16 12:59:58;;;;;;;3.85;1.30;;;;;;;;;;5055579;28;20067;-63
2022/04/16 13:02:25;;;;;;;4.45;1.33;;;;;;;;;;5066542;28;20032;-63
2022/04/16 13:04:51;;;;;;;3.33;1.48;;;;;;;;;;5069954;28;20085;-63
2022/04/16 13:07:17;;;;;;;4.55;1.27;;;;;;;;;;5070188;28;20406;-63
2022/04/16 13:09:43;;;;;;;1.38;1.10;;;;;;;;;;5067763;28;20158;-62
2022/04/16 13:12:09;;;;;;;2.35;1.20;;;;;;;;;;5070065;28;20487;-63
2022/04/16 13:14:35;;;;;;;2.20;1.20;;;;;;;;;;5068438;28;20036;-63
2022/04/16 13:17:02;;;;;;;2.72;1.40;;;;;;;;;;5066956;28;20387;-63
2022/04/16 13:19:28;;;;;;;2.58;1.52;;;;;;;;;;5062739;28;20527;-63
2022/04/16 13:21:55;;;;;;;2.55;1.30;;;;;;;;;;5070125;28;20431;-63
2022/04/16 13:24:21;;;;;;;6.25;1.20;;;;;;;;;;5067428;28;20414;-63
2022/04/16 13:26:48;;;;;;;2.13;1.20;;;;;;;;;;5063523;28;20047;-63
2022/04/16 13:29:17;;;;;;;3.95;1.40;;;;;;;;;;5070498;28;20098;-63
2022/04/16 13:31:44;;;;;;;2.92;1.50;;;;;;;;;;5070973;28;20398;-63
2022/04/16 13:34:10;;;;;;;5.18;1.40;;;;;;;;;;5052968;28;20044;-63
2022/04/16 13:36:36;;;;;;;1.85;1.30;;;;;;;;;;5069164;28;20055;-63
2022/04/16 13:39:04;;;;;;;1.73;1.33;;;;;;;;;;5065515;28;20044;-63
2022/04/16 13:41:39;;;;;;;1.98;1.45;;;;;;;;;;5056919;28;20044;-64
2022/04/16 13:44:06;;;;;;;3.63;1.30;;;;;;;;;;5067936;28;20032;-62
2022/04/16 13:46:33;;;;;;;1.40;1.10;;;;;;;;;;5066906;28;20048;-62
2022/04/16 13:48:59;;;;;;;2.13;1.25;;;;;;;;;;5049151;28;20036;-62
2022/04/16 13:51:25;;;;;;;2.83;1.20;;;;;;;;;;5067962;28;20048;-63
2022/04/16 13:53:51;;;;;;;2.35;1.20;;;;;;;;;;5053613;28;20033;-62
2022/04/16 13:56:17;;;;;;;1.67;1.10;;;;;;;;;;5065858;28;20029;-63
2022/04/16 13:58:43;;;;;;;1.58;1.05;;;;;;;;;;5069206;28;20130;-63
2022/04/16 14:01:11;;;;;;;2.03;1.10;;;;;;;;;;5068859;28;20032;-63
2022/04/16 14:03:37;;;;;;;2.33;1.20;;;;;;;;;;5049681;28;20048;-64
2022/04/16 14:06:03;;;;;;;1.70;1.30;;;;;;;;;;5065645;28;20041;-64
2022/04/16 14:08:29;;;;;;;3.92;1.30;;;;;;;;;;5068864;28;20035;-64
2022/04/16 14:10:58;;;;;;;6.72;1.38;;;;;;;;;;5067939;28;20437;-64
2022/04/16 14:13:25;;;;;;;2.20;1.40;;;;;;;;;;5047846;28;20060;-63
2022/04/16 14:15:52;;;;;;;1.98;1.27;;;;;;;;;;5072985;28;20045;-64
2022/04/16 14:18:18;;;;;;;2.05;1.10;;;;;;;;;;5073061;28;20044;-64
2022/04/16 14:20:44;;;;;;;1.60;1.42;;;;;;;;;;5074255;28;20040;-64
2022/04/16 14:23:10;;;;;;;2.13;1.40;;;;;;;;;;5073143;28;20048;-63
2022/04/16 14:25:38;;;;;;;2.08;1.30;;;;;;;;;;5072289;28;20071;-63
2022/04/16 14:28:04;;;;;;;2.95;1.23;;;;;;;;;;5073212;28;20044;-64
2022/04/16 14:30:30;;;;;;;2.60;1.35;;;;;;;;;;5074445;28;20037;-63
2022/04/16 14:32:56;;;;;;;1.90;1.35;;;;;;;;;;5072221;28;20086;-64
2022/04/16 14:35:22;;;;;;;3.45;1.40;;;;;;;;;;5072548;28;20056;-64
2022/04/16 14:37:48;;;;;;;3.30;1.48;;;;;;;;;;5073233;28;20051;-64
2022/04/16 14:40:14;;;;;;;2.47;1.80;;;;;;;;;;5074651;28;20127;-64
2022/04/16 14:42:40;;;;;;;2.13;1.55;;;;;;;;;;5072665;28;20036;-64
2022/04/16 14:45:06;;;;;;;4.25;1.40;;;;;;;;;;5072943;28;20041;-64
2022/04/16 14:47:32;;;;;;;3.13;1.73;;;;;;;;;;5054455;28;20036;-63